Aviation Digital Data Service (ADDS)

Output produced by METARs form (2019 UTC 28 May 2017)
found at http://aviationweather.gov/adds/metars/
 
KRDU 281720Z 2818/2918 24012KT P6SM SCT050 BKN250 
     FM290000 VRB04KT P6SM SCT050 BKN250